Latest Weather Observations for Wynyard

IDT60801

Issued at 7:05 am EST Saturday 19 April 2014 (issued every 30 minutes, with the page automatically refreshed every 10 minutes)

About weather observations | Map of weather stations | Latest weather observations for TAS | Other Formats
Station Details ID: 091107 Name: WYNYARD AIRPORT Lat: -41.00 Lon: 145.73 Height: 12.0 m
Data from the previous 72 hours. | See also: Recent months at Wynyard
Date/Time
EST
Temp
°C
App
Temp
°C
Dew
Point
Rel
Hum
%
Delta-T
°C
Wind Press
QNH
hPa
Press
MSL
hPa
Rain
since 9 am
mm
Dir
 
Spd
km/h
Gust
km/h
Spd
kts
Gust
kts
19/07:00am 3.2 0.0 3.1 99 0.0 W 9 11 5 6 1017.0 - 0.6
19/06:30am 2.8 -1.2 2.7 99 0.0 W 13 15 7 8 1016.8 - 0.6
19/06:00am 3.9 0.8 3.8 99 0.0 W 9 9 5 5 1016.7 1016.7 0.6
19/05:30am 3.6 1.1 3.5 99 0.0 WSW 6 7 3 4 1016.7 - 0.6
19/05:00am 3.8 1.3 3.7 99 0.0 WSW 6 9 3 5 1016.4 - 0.6
19/04:30am 4.4 0.2 3.7 95 0.3 W 15 19 8 10 1016.2 - 0.6
19/04:00am 5.0 1.4 4.9 99 0.0 WSW 13 19 7 10 1016.3 - 0.6
19/03:30am 3.0 -1.4 2.7 98 0.1 WNW 15 17 8 9 1016.2 - 0.6
19/03:00am 5.0 1.7 4.6 97 0.2 WNW 11 13 6 7 1016.2 1016.2 0.6
19/02:30am 6.5 3.1 5.8 95 0.3 NW 13 15 7 8 1016.4 - 0.6
19/02:00am 4.8 1.5 4.7 99 0.0 W 11 13 6 7 1016.5 - 0.6
19/01:30am 4.2 0.4 4.1 99 0.0 WSW 13 17 7 9 1016.6 - 0.6
19/01:00am 5.1 1.8 4.7 97 0.2 W 11 13 6 7 1016.7 - 0.6
19/12:30am 5.2 1.9 4.3 94 0.4 W 11 15 6 8 1016.5 - 0.6
19/12:00am 7.6 4.5 5.4 86 1.0 WNW 11 15 6 8 1016.5 1016.5 0.6
 
Date/Time
EST
Temp
°C
App
Temp
°C
Dew
Point
Rel
Hum
%
Delta-T
°C
Wind Press
QNH
hPa
Press
MSL
hPa
Rain
since 9 am
mm
Dir
 
Spd
km/h
Gust
km/h
Spd
kts
Gust
kts
18/11:30pm 8.0 5.0 6.0 87 0.9 WNW 11 15 6 8 1016.6 - 0.6
18/11:00pm 8.6 5.0 6.7 88 0.9 W 15 20 8 11 1016.3 - 0.6
18/10:30pm 6.9 3.0 5.5 91 0.6 W 15 17 8 9 1016.4 - 0.6
18/10:00pm 7.4 3.9 5.5 88 0.8 W 13 15 7 8 1016.2 - 0.6
18/09:30pm 8.6 4.9 6.2 85 1.1 W 15 17 8 9 1015.9 - 0.6
18/09:00pm 9.5 5.6 6.9 84 1.2 W 17 20 9 11 1015.9 1015.9 0.6
18/08:30pm 9.1 4.6 6.2 82 1.3 WNW 19 20 10 11 1015.4 - 0.6
18/08:00pm 10.1 6.5 6.8 80 1.6 WNW 15 19 8 10 1015.3 - 0.6
18/07:30pm 10.2 6.3 6.9 80 1.6 W 17 22 9 12 1015.2 - 0.6
18/07:00pm 10.4 7.1 6.5 77 1.8 WNW 13 17 7 9 1014.9 - 0.6
18/06:30pm 10.9 7.5 6.1 72 2.2 W 13 20 7 11 1014.5 - 0.6
18/06:00pm 11.7 8.4 6.4 70 2.5 W 13 30 7 16 1014.0 1014.0 0.6
18/05:30pm 12.8 9.1 6.4 65 3.0 WSW 15 24 8 13 1013.5 - 0.6
18/05:00pm 13.6 8.7 6.9 64 3.2 WSW 22 30 12 16 1012.9 - 0.6
18/04:30pm 13.7 8.0 6.6 62 3.4 WSW 26 35 14 19 1012.6 - 0.6
18/04:00pm 15.1 9.5 7.2 59 3.9 WSW 26 39 14 21 1012.0 - 0.6
18/03:30pm 14.6 7.8 6.7 59 3.8 WSW 32 54 17 29 1011.7 - 0.6
18/03:00pm 14.4 6.0 5.7 56 4.1 WSW 39 59 21 32 1011.3 1011.3 0.6
18/02:30pm 15.4 7.6 6.7 56 4.2 WSW 37 61 20 33 1010.9 - 0.6
18/02:02pm 16.1 9.0 6.5 53 4.7 WSW 33 52 18 28 1010.8 - 0.6
18/02:00pm 16.8 9.9 7.4 54 4.7 WSW 33 46 18 25 1010.8 - 0.6
18/01:35pm 15.7 8.5 5.9 52 4.7 WSW 33 61 18 33 1010.5 - 0.6
18/01:30pm 16.2 9.4 7.9 58 4.2 SW 33 46 18 25 1010.4 - 0.6
18/01:12pm 17.0 10.9 8.4 57 4.4 WSW 30 48 16 26 1010.1 - 0.6
18/01:00pm 16.2 9.2 6.9 54 4.6 SW 33 48 18 26 1010.2 - 0.6
18/12:30pm 15.7 9.1 7.7 59 4.0 WSW 32 50 17 27 1010.3 - 0.6
18/12:06pm 15.2 9.6 8.7 65 3.3 WSW 28 46 15 25 1010.3 - 0.6
18/12:00pm 15.5 11.5 10.3 71 2.7 WSW 22 35 12 19 1010.4 1010.4 0.6
18/11:30am 13.5 9.5 10.5 82 1.6 WSW 22 32 12 17 1010.6 - 0.6
18/11:00am 12.3 9.6 10.2 87 1.1 WSW 15 19 8 10 1010.5 - 0.6
18/10:30am 12.3 9.9 10.2 87 1.1 WNW 13 22 7 12 1010.5 - 0.6
18/10:00am 12.2 9.1 10.4 89 0.9 SSW 17 24 9 13 1010.0 - 0.6
18/09:30am 12.1 6.6 10.5 90 0.8 SW 30 44 16 24 1010.2 - 0.6
18/09:03am 12.5 7.9 11.1 91 0.7 SW 26 33 14 18 1010.8 - 0.0
18/09:00am 12.6 8.2 11.7 94 0.5 SW 26 43 14 23 1010.8 1010.8 2.8
18/08:48am 12.7 6.2 11.8 94 0.5 SW 37 61 20 33 1010.6 - 2.8
18/08:46am 12.7 5.0 11.6 93 0.6 SW 43 61 23 33 1010.6 - 2.6
18/08:43am 12.8 5.2 12.3 97 0.3 W 44 61 24 33 1010.7 - 2.4
18/08:30am 14.7 12.5 14.5 99 0.1 NW 19 26 10 14 1010.1 - 0.6
18/08:16am 14.9 14.1 14.1 95 0.5 NW 11 17 6 9 1010.2 - 0.2
18/08:00am 15.2 14.6 13.6 90 0.9 NW 9 13 5 7 1010.3 - 0.0
18/07:30am 15.0 13.5 13.2 89 1.0 WNW 13 17 7 9 1010.4 - 0.0
18/07:00am 15.0 13.2 13.2 89 1.0 WNW 15 20 8 11 1010.7 - 0.0
18/06:30am 14.9 12.7 13.4 91 0.8 WNW 17 22 9 12 1010.9 - 0.0
18/06:00am 15.1 13.0 13.6 91 0.8 W 17 20 9 11 1011.1 1011.1 0.0
18/05:30am 15.4 13.0 13.9 91 0.8 W 19 24 10 13 1011.1 - 0.0
18/05:00am 15.9 14.4 14.1 89 1.0 NNW 15 24 8 13 1011.2 - 0.0
18/04:30am 16.2 14.8 14.4 89 1.0 NNW 15 20 8 11 1011.8 - 0.0
18/04:00am 16.1 14.6 14.3 89 1.0 NNW 15 20 8 11 1012.4 - 0.0
18/03:30am 15.9 15.6 15.4 97 0.3 NW 11 22 6 12 1012.7 - 0.0
18/03:00am 13.2 12.9 13.2 100 0.0 WSW 7 11 4 6 1013.1 1013.1 0.0
18/02:30am 11.8 11.2 11.8 100 0.0 SW 6 9 3 5 1013.6 - 0.0
18/02:02am 11.8 11.2 11.8 100 0.0 W 6 9 3 5 1014.1 - 0.0
18/02:00am 11.8 11.2 11.8 100 0.0 W 6 9 3 5 1014.1 - 0.0
18/01:36am 11.5 11.2 11.5 100 0.0 W 4 7 2 4 1014.6 - 0.0
18/01:30am 11.5 10.6 11.5 100 0.0 W 7 9 4 5 1014.7 - 0.0
18/01:21am 11.7 10.9 11.7 100 0.0 W 7 13 4 7 1014.8 - 0.0
18/01:08am 11.7 11.1 11.7 100 0.0 W 6 11 3 6 1015.1 - 0.0
18/01:00am 11.8 10.7 11.8 100 0.0 W 9 11 5 6 1015.2 - 0.0
18/12:49am 11.8 10.7 11.8 100 0.0 W 9 11 5 6 1015.2 - 0.0
18/12:30am 12.1 11.4 12.1 100 0.0 W 7 9 4 5 1015.4 - 0.0
18/12:18am 11.8 11.0 11.8 100 0.0 WNW 7 11 4 6 1015.6 - 0.0
18/12:00am 11.4 10.1 11.4 100 0.0 W 9 13 5 7 1015.8 1015.8 0.0
 
Date/Time
EST
Temp
°C
App
Temp
°C
Dew
Point
Rel
Hum
%
Delta-T
°C
Wind Press
QNH
hPa
Press
MSL
hPa
Rain
since 9 am
mm
Dir
 
Spd
km/h
Gust
km/h
Spd
kts
Gust
kts
17/11:44pm 11.0 10.0 11.0 100 0.0 WNW 7 9 4 5 1015.9 - 0.0
17/11:30pm 10.6 9.7 10.6 100 0.0 W 6 7 3 4 1016.0 - 0.0
17/11:28pm 10.7 9.6 10.7 100 0.0 W 7 7 4 4 1016.1 - 0.0
17/11:11pm 10.1 9.0 10.1 100 0.0 SW 6 7 3 4 1016.3 - 0.0
17/11:00pm 9.9 8.2 9.9 100 0.0 W 9 13 5 7 1016.5 - 0.0
17/10:47pm 10.3 8.3 10.3 100 0.0 WNW 11 13 6 7 1016.7 - 0.0
17/10:30pm 10.2 9.0 10.2 100 0.0 WSW 7 13 4 7 1016.8 - 0.0
17/10:19pm 10.9 10.8 10.9 100 0.0 SSW 2 6 1 3 1016.7 - 0.0
17/10:00pm 11.5 12.0 11.5 100 0.0 CALM 0 6 0 3 1017.2 - 0.0
17/09:30pm 10.3 9.0 10.1 99 0.1 W 7 9 4 5 1017.6 - 0.0
17/09:00pm 10.5 8.9 10.3 99 0.1 SW 9 11 5 6 1017.4 1017.4 0.0
17/08:30pm 12.4 11.9 12.2 99 0.1 SE 6 7 3 4 1017.5 - 0.0
17/08:00pm 13.7 14.0 13.4 98 0.2 WSW 4 6 2 3 1017.9 - 0.0
17/07:30pm 14.5 14.9 13.7 95 0.4 NW 4 13 2 7 1017.8 - 0.0
17/07:00pm 14.9 16.1 13.8 93 0.6 CALM 0 0 0 0 1017.7 - 0.0
17/06:30pm 14.9 15.9 13.3 90 0.9 CALM 0 0 0 0 1017.8 - 0.0
17/06:00pm 16.1 16.0 13.4 84 1.5 N 6 7 3 4 1018.0 1018.0 0.0
17/05:30pm 16.4 15.7 13.1 81 1.8 NNE 9 13 5 7 1017.9 - 0.0
17/05:00pm 16.8 15.8 13.3 80 2.0 N 11 17 6 9 1018.1 - 0.0
17/04:30pm 17.1 16.0 13.2 78 2.2 NNE 11 17 6 9 1018.0 - 0.0
17/04:00pm 17.5 15.7 13.4 77 2.3 NNE 15 20 8 11 1018.2 - 0.0
17/03:30pm 18.1 15.9 13.4 74 2.7 NNE 17 20 9 11 1018.5 - 0.0
17/03:00pm 18.2 15.9 13.1 72 2.9 NNE 17 20 9 11 1018.7 1018.7 0.0
17/02:30pm 19.3 16.9 13.9 71 3.1 NNE 19 24 10 13 1018.8 - 0.0
17/02:00pm 18.7 16.0 12.9 69 3.3 NNE 19 24 10 13 1019.0 - 0.0
17/01:30pm 18.4 16.0 12.8 70 3.1 NNE 17 22 9 12 1019.2 - 0.0
17/01:00pm 18.3 16.2 13.6 74 2.7 NNE 17 22 9 12 1019.6 - 0.0
17/12:30pm 18.5 16.7 13.4 72 2.9 NE 15 20 8 11 1020.0 - 0.0
17/12:00pm 18.2 16.5 13.7 75 2.6 NE 15 20 8 11 1020.2 1020.2 0.0
17/11:30am 17.5 15.9 14.0 80 2.0 ENE 15 24 8 13 1020.4 - 0.0
17/11:00am 17.5 16.4 14.4 82 1.8 E 13 19 7 10 1020.7 - 0.0
17/10:30am 16.5 15.2 14.7 89 1.0 E 15 22 8 12 1020.6 - 0.0
17/10:00am 17.1 15.0 15.1 88 1.2 E 20 28 11 15 1020.5 - 0.0
17/09:30am 15.4 14.0 14.4 94 0.6 E 15 20 8 11 1020.5 - 0.0
17/09:00am 14.1 15.3 13.9 99 0.1 CALM 0 6 0 3 1020.7 1020.7 0.8
17/08:30am 13.5 13.5 13.5 100 0.0 W 6 7 3 4 1020.7 - 0.8
17/08:00am 11.8 11.2 11.8 100 0.0 W 6 11 3 6 1020.7 - 0.8
17/07:44am 11.3 10.0 11.3 100 0.0 W 9 11 5 6 1020.6 - 0.8
17/07:30am 10.9 10.1 10.9 100 0.0 WSW 6 6 3 3 1020.4 - 0.8
17/07:27am 10.9 10.1 10.9 100 0.0 W 6 6 3 3 1020.4 - 0.8
17/07:20am 11.0 10.2 11.0 100 0.0 W 6 9 3 5 1020.3 - 0.8
17/07:00am 10.5 9.0 10.5 100 0.0 WNW 9 9 5 5 1020.2 - 0.8
17/06:30am 10.4 9.2 10.4 100 0.0 WNW 7 11 4 6 1020.0 - 0.8
17/06:00am 10.0 8.0 10.0 100 0.0 W 11 13 6 7 1020.1 1020.1 0.8
17/05:30am 9.3 7.8 9.3 100 0.0 WNW 7 9 4 5 1020.0 - 0.8
17/05:00am 7.9 5.3 7.8 99 0.0 W 11 13 6 7 1019.9 - 0.8
17/04:30am 9.5 8.1 9.4 99 0.0 WNW 7 9 4 5 1019.7 - 0.8
17/04:07am 10.0 8.7 9.9 99 0.1 W 7 11 4 6 1019.6 - 0.8
17/04:00am 10.9 10.4 10.7 99 0.1 W 4 6 2 3 1019.5 - 0.8
17/03:30am 11.3 10.5 11.1 99 0.1 W 6 9 3 5 1019.6 - 0.6
17/03:27am 11.3 10.6 11.3 100 0.0 W 6 9 3 5 1019.6 - 0.6
17/03:00am 11.1 9.7 10.9 99 0.1 WSW 9 11 5 6 1019.7 1019.7 0.6
17/02:44am 11.2 9.8 11.0 99 0.1 W 9 11 5 6 1019.9 - 0.0
17/02:30am 11.3 10.3 11.1 99 0.1 NW 7 9 4 5 1020.0 - 0.0
17/02:00am 10.1 8.8 9.9 99 0.1 W 7 9 4 5 1020.0 - 0.0
17/01:30am 10.7 8.8 10.5 99 0.1 W 11 15 6 8 1020.2 - 0.0
17/01:00am 10.7 9.2 10.5 99 0.1 W 9 11 5 6 1020.1 - 0.0
17/12:30am 10.7 9.8 10.5 99 0.1 W 6 7 3 4 1020.0 - 0.0
17/12:00am 10.6 8.7 10.4 99 0.1 W 11 13 6 7 1020.1 1020.1 0.0
 
Date/Time
EST
Temp
°C
App
Temp
°C
Dew
Point
Rel
Hum
%
Delta-T
°C
Wind Press
QNH
hPa
Press
MSL
hPa
Rain
since 9 am
mm
Dir
 
Spd
km/h
Gust
km/h
Spd
kts
Gust
kts
16/11:30pm 10.6 9.6 10.4 99 0.1 WNW 6 7 3 4 1020.2 - 0.0
16/11:00pm 11.1 9.7 10.9 99 0.1 WNW 9 11 5 6 1020.6 - 0.0
16/10:30pm 11.6 11.3 11.4 99 0.1 W 4 9 2 5 1020.5 - 0.0
16/10:00pm 11.7 11.0 11.5 99 0.1 W 6 9 3 5 1020.6 - 0.0
16/09:30pm 11.3 10.3 11.1 99 0.1 W 7 9 4 5 1020.4 - 0.0
16/09:00pm 11.5 11.9 11.3 99 0.1 CALM 0 0 0 0 1020.2 1020.2 0.0
16/08:30pm 10.9 9.8 10.7 99 0.1 WSW 7 7 4 4 1020.3 - 0.0
16/08:00pm 11.2 10.4 11.0 99 0.1 W 6 7 3 4 1020.3 - 0.0
16/07:30pm 11.1 11.0 10.9 99 0.1 S 2 9 1 5 1020.3 - 0.0
16/07:00pm 11.6 10.3 11.3 98 0.2 S 9 11 5 6 1020.4 - 0.0
16/06:30pm 12.3 11.1 11.7 96 0.3 S 9 11 5 6 1020.4 - 0.0
16/06:00pm 13.1 12.3 11.2 88 1.0 S 6 7 3 4 1020.3 1020.3 0.0
16/05:30pm 14.6 14.0 11.6 82 1.6 SE 6 7 3 4 1020.1 - 0.0
16/05:00pm 15.4 14.6 11.8 79 1.9 E 7 9 4 5 1020.1 - 0.0
16/04:30pm 16.0 14.8 11.6 75 2.4 ENE 9 13 5 7 1020.1 - 0.0
16/04:00pm 16.5 15.3 11.6 73 2.7 ENE 9 15 5 8 1020.2 - 0.0
16/03:30pm 16.1 14.6 11.9 76 2.3 ENE 11 17 6 9 1020.2 - 0.0
16/03:00pm 16.1 14.2 11.9 76 2.3 E 13 19 7 10 1020.1 1020.1 0.0
16/02:30pm 16.6 14.2 11.5 72 2.8 ENE 15 22 8 12 1020.4 - 0.0
16/02:00pm 16.9 14.9 11.6 71 2.9 ENE 13 19 7 10 1020.7 - 0.0
16/01:30pm 17.2 14.7 11.0 67 3.3 ENE 15 20 8 11 1020.9 - 0.0
16/01:00pm 16.7 14.1 10.8 68 3.2 ENE 15 20 8 11 1021.1 - 0.0
16/12:30pm 16.8 13.7 10.4 66 3.4 E 17 24 9 13 1021.4 - 0.0
16/12:00pm 16.9 13.9 10.5 66 3.4 E 17 24 9 13 1021.7 1021.6 0.0
16/11:30am 16.1 12.7 9.3 64 3.5 ENE 17 24 9 13 1021.9 - 0.0
16/11:00am 16.2 13.2 9.2 63 3.6 ENE 15 22 8 12 1022.2 - 0.0
16/10:30am 16.2 13.7 9.8 66 3.3 ENE 13 19 7 10 1022.3 - 0.0
16/10:00am 15.7 12.7 9.1 65 3.4 ENE 15 20 8 11 1022.5 - 0.0
16/09:30am 16.5 13.9 9.2 62 3.8 E 13 19 7 10 1022.6 - 0.0
16/09:00am 15.7 14.0 10.0 69 3.0 ESE 9 15 5 8 1022.7 1022.6 0.0
16/08:30am 13.9 12.6 9.1 73 2.4 S 6 7 3 4 1023.1 - 0.0
16/08:00am 13.0 11.6 9.6 80 1.7 WSW 7 9 4 5 1023.0 - 0.0
16/07:30am 10.8 9.6 9.7 93 0.6 S 6 9 3 5 1022.6 - 0.0

Other Formats:

Comma delimited format used in spreadsheet applications
http://www.bom.gov.au/fwo/IDT60801/IDT60801.95957.axf

JavaScript Object Notation format (JSON) in row-major order
http://www.bom.gov.au/fwo/IDT60801/IDT60801.95957.json